Time;durP1;ratioP1;P1;durP2;ratioP2;P2;SDS_P1;SDS_P2;PMS_P1;PMS_P2;Temp;Humidity;BMP_temperature;BMP_pressure;BME280_temperature;BME280_humidity;BME280_pressure;Samples;Min_cycle;Max_cycle;Signal;HPM_P1;HPM_P2
2023/07/26 00:05:13;;;;;;;8.52;3.83;;;15.50;99.90;;;;;;10346989;28;20208;-78
2023/07/26 00:10:35;;;;;;;4.50;2.53;;;15.40;99.90;;;;;;10360284;28;20485;-77
2023/07/26 00:15:56;;;;;;;6.50;2.53;;;15.50;1.00;;;;;;10380268;28;20309;-78
2023/07/26 00:21:18;;;;;;;3.42;1.88;;;15.50;99.90;;;;;;10372262;28;20199;-79
2023/07/26 00:26:40;;;;;;;3.10;1.95;;;15.50;1.00;;;;;;10375021;28;20204;-79
2023/07/26 00:32:02;;;;;;;3.63;2.08;;;15.50;99.90;;;;;;10373180;28;20254;-82
2023/07/26 00:37:24;;;;;;;10.93;2.92;;;15.40;1.00;;;;;;10359030;28;20235;-79
2023/07/26 00:42:45;;;;;;;3.65;2.13;;;15.40;1.00;;;;;;10358017;28;20464;-78
2023/07/26 00:48:10;;;;;;;3.60;2.00;;;15.20;1.00;;;;;;10351529;28;20205;-79
2023/07/26 00:53:33;;;;;;;4.63;2.20;;;15.20;99.90;;;;;;10357068;28;20240;-79
2023/07/26 00:58:56;;;;;;;4.15;2.13;;;15.20;99.90;;;;;;10358434;28;20382;-79
2023/07/26 01:04:18;;;;;;;2.85;2.03;;;15.20;99.90;;;;;;10355876;28;20201;-79
2023/07/26 01:10:00;;;;;;;4.60;1.73;;;15.30;99.90;;;;;;10342841;28;20200;-78
2023/07/26 01:15:29;;;;;;;5.25;1.80;;;15.30;1.00;;;;;;10369001;28;20231;-79
2023/07/26 01:20:50;;;;;;;7.07;2.00;;;15.30;99.90;;;;;;10389510;28;20215;-79
2023/07/26 01:26:12;;;;;;;3.30;1.48;;;15.30;1.00;;;;;;10410811;28;20196;-79
2023/07/26 01:31:35;;;;;;;4.30;2.00;;;15.30;1.00;;;;;;10368733;28;20242;-80
2023/07/26 01:36:57;;;;;;;3.15;1.63;;;15.30;1.00;;;;;;10392032;28;20307;-77
2023/07/26 01:42:19;;;;;;;4.28;1.90;;;15.30;1.00;;;;;;10330222;28;20504;-77
2023/07/26 01:47:41;;;;;;;2.92;1.77;;;15.20;99.90;;;;;;10341698;28;20218;-77
2023/07/26 01:53:03;;;;;;;4.45;2.10;;;15.20;99.90;;;;;;10354785;28;20199;-78
2023/07/26 01:58:24;;;;;;;2.60;1.92;;;15.20;1.00;;;;;;10341066;28;20258;-77
2023/07/26 02:03:46;;;;;;;2.50;1.58;;;15.10;1.00;;;;;;10353509;28;20232;-78
2023/07/26 02:09:08;;;;;;;4.25;1.95;;;15.10;31.90;;;;;;10340761;28;20279;-80
2023/07/26 02:14:29;;;;;;;4.90;2.78;;;15.10;86.40;;;;;;10356620;28;20266;-79
2023/07/26 02:19:51;;;;;;;3.20;2.08;;;15.00;1.00;;;;;;10353754;28;20275;-80
2023/07/26 02:25:13;;;;;;;7.28;2.13;;;14.90;1.00;;;;;;10355223;28;20196;-80
2023/07/26 02:30:34;;;;;;;3.25;2.08;;;14.80;1.00;;;;;;10354521;28;20263;-79
2023/07/26 02:35:59;;;;;;;5.55;2.47;;;14.80;99.90;;;;;;10352804;28;20541;-78
2023/07/26 02:41:21;;;;;;;4.85;2.10;;;14.70;1.00;;;;;;10364051;28;20498;-82
2023/07/26 02:46:42;;;;;;;7.00;3.90;;;14.70;99.90;;;;;;10395189;28;20205;-79
2023/07/26 02:52:04;;;;;;;5.13;2.83;;;14.70;99.90;;;;;;10385731;28;20211;-78
2023/07/26 02:57:26;;;;;;;4.63;2.42;;;14.70;99.90;;;;;;10367324;28;20224;-83
2023/07/26 03:02:48;;;;;;;6.55;3.72;;;14.70;1.00;;;;;;10353524;28;20200;-80
2023/07/26 03:08:10;;;;;;;7.05;3.40;;;14.70;99.90;;;;;;10352170;28;20207;-78
2023/07/26 03:13:31;;;;;;;6.05;2.53;;;14.70;1.00;;;;;;10352715;28;20195;-78
2023/07/26 03:18:53;;;;;;;3.65;2.33;;;14.70;1.00;;;;;;10340476;28;20461;-80
2023/07/26 03:24:15;;;;;;;5.00;3.20;;;14.70;85.70;;;;;;10337104;28;20392;-78
2023/07/26 03:29:36;;;;;;;3.45;2.60;;;14.80;1.00;;;;;;10352534;28;20258;-80
2023/07/26 03:34:58;;;;;;;9.93;2.67;;;14.80;1.00;;;;;;10352329;28;20250;-77
2023/07/26 03:40:20;;;;;;;8.45;2.30;;;14.80;1.00;;;;;;10355094;28;20203;-79
2023/07/26 03:45:41;;;;;;;2.65;1.65;;;14.80;19.30;;;;;;10361195;28;20204;-79
2023/07/26 03:51:03;;;;;;;4.90;2.40;;;14.80;1.00;;;;;;10345316;28;20223;-79
2023/07/26 03:56:24;;;;;;;4.32;2.50;;;14.80;1.00;;;;;;10355063;28;20229;-80
2023/07/26 04:01:46;;;;;;;6.05;2.47;;;14.80;1.00;;;;;;10359892;28;20976;-79
2023/07/26 04:07:07;;;;;;;4.63;2.08;;;14.80;1.00;;;;;;10372137;28;20228;-79
2023/07/26 04:12:29;;;;;;;3.35;1.98;;;14.90;1.00;;;;;;10372878;28;20222;-79
2023/07/26 04:17:50;;;;;;;2.83;1.70;;;14.90;1.00;;;;;;10359157;28;20592;-79
2023/07/26 04:23:12;;;;;;;3.65;2.10;;;15.00;1.00;;;;;;10362276;28;20203;-79
2023/07/26 04:28:33;;;;;;;7.10;2.28;;;15.00;1.00;;;;;;10358418;28;20199;-79
2023/07/26 04:33:55;;;;;;;3.58;2.20;;;15.00;99.90;;;;;;10344089;28;20749;-78
2023/07/26 04:39:16;;;;;;;7.68;2.00;;;14.90;99.20;;;;;;10372189;28;20254;-78
2023/07/26 04:44:38;;;;;;;6.97;2.58;;;14.80;1.00;;;;;;10357789;28;20499;-78
2023/07/26 04:49:59;;;;;;;5.47;2.08;;;14.80;99.90;;;;;;10356314;28;20203;-78
2023/07/26 04:55:21;;;;;;;8.27;1.70;;;14.80;99.90;;;;;;10365754;28;20228;-78
2023/07/26 05:00:43;;;;;;;3.92;2.00;;;14.80;1.00;;;;;;10357080;28;20203;-78
2023/07/26 05:06:05;;;;;;;6.55;2.13;;;15.00;99.90;;;;;;10358043;28;20198;-77
2023/07/26 05:11:26;;;;;;;5.10;1.70;;;15.00;99.90;;;;;;10339056;28;20254;-79
2023/07/26 05:16:48;;;;;;;4.97;1.92;;;15.20;1.00;;;;;;10356470;28;20412;-80
2023/07/26 05:22:10;;;;;;;4.90;1.55;;;15.30;1.00;;;;;;10356236;28;20227;-78
2023/07/26 05:27:32;;;;;;;3.80;1.98;;;15.30;99.90;;;;;;10349677;28;20217;-88
2023/07/26 05:32:54;;;;;;;7.65;2.22;;;15.50;1.00;;;;;;10382853;28;20231;-81
2023/07/26 05:38:15;;;;;;;7.10;2.05;;;15.70;1.00;;;;;;10384451;28;20232;-82
2023/07/26 05:43:37;;;;;;;2.63;1.80;;;15.90;99.90;;;;;;10339632;28;20254;-78
2023/07/26 05:48:59;;;;;;;3.28;1.70;;;16.10;99.90;;;;;;10369053;28;20386;-78
2023/07/26 05:54:20;;;;;;;4.63;1.77;;;16.30;1.00;;;;;;10370972;28;20204;-85
2023/07/26 05:59:42;;;;;;;6.22;1.90;;;16.40;99.90;;;;;;10350954;28;20242;-80
2023/07/26 06:05:05;;;;;;;4.45;1.90;;;16.40;1.00;;;;;;10367911;28;20206;-82
2023/07/26 06:10:26;;;;;;;5.70;1.55;;;16.60;99.90;;;;;;10367985;28;20215;-86
2023/07/26 06:15:48;;;;;;;8.07;1.83;;;16.90;12.50;;;;;;10353026;28;20221;-80
2023/07/26 06:21:11;;;;;;;4.95;1.70;;;17.20;1.00;;;;;;10346073;28;20279;-79
2023/07/26 06:26:33;;;;;;;7.50;1.70;;;17.30;99.90;;;;;;10340255;28;20280;-79
2023/07/26 06:31:55;;;;;;;6.18;1.52;;;17.40;99.90;;;;;;10338386;28;20316;-82
2023/07/26 06:37:16;;;;;;;5.90;1.50;;;17.40;1.00;;;;;;10330738;28;20543;-78
2023/07/26 06:42:38;;;;;;;4.78;1.58;;;17.50;1.00;;;;;;10354751;28;20357;-81
2023/07/26 06:48:00;;;;;;;6.97;1.70;;;17.50;1.00;;;;;;10338341;28;20212;-80
2023/07/26 06:53:21;;;;;;;2.47;1.50;;;18.00;99.90;;;;;;10326795;28;20217;-84
2023/07/26 06:58:43;;;;;;;2.75;1.20;;;18.80;99.90;;;;;;10331379;28;20234;-84
2023/07/26 07:04:05;;;;;;;8.60;1.50;;;19.20;1.00;;;;;;10340438;28;20268;-82
2023/07/26 07:09:31;;;;;;;3.55;1.23;;;19.10;1.00;;;;;;10336586;28;20226;-78
2023/07/26 07:14:53;;;;;;;4.43;1.45;;;19.90;1.00;;;;;;10379723;28;20213;-79
2023/07/26 07:20:15;;;;;;;5.00;1.15;;;20.40;1.00;;;;;;10357153;28;20296;-79
2023/07/26 07:25:40;;;;;;;3.78;1.60;;;20.60;1.00;;;;;;10355347;28;20198;-79
2023/07/26 07:31:01;;;;;;;3.42;1.25;;;21.00;1.00;;;;;;10371062;28;20214;-79
2023/07/26 07:36:23;;;;;;;4.15;1.35;;;21.80;1.00;;;;;;10373193;28;20233;-88
2023/07/26 07:41:44;;;;;;;2.63;1.27;;;22.10;1.00;;;;;;10341605;28;20225;-81
2023/07/26 07:47:06;;;;;;;6.57;4.03;;;22.70;1.00;;;;;;10354161;28;20465;-80
2023/07/26 07:52:30;;;;;;;5.00;1.83;;;22.50;1.00;;;;;;10356369;28;20221;-82
2023/07/26 07:57:51;;;;;;;2.63;1.20;;;20.90;1.00;;;;;;10359465;28;20236;-80
2023/07/26 08:03:13;;;;;;;5.72;1.85;;;20.20;1.00;;;;;;10367007;28;20206;-80
2023/07/26 08:08:34;;;;;;;3.22;1.13;;;19.00;99.90;;;;;;10377607;28;20373;-80
2023/07/26 08:13:56;;;;;;;3.38;1.50;;;;;;;;;;10347522;28;20300;-80
2023/07/26 08:19:18;;;;;;;1.83;1.08;;;17.80;99.90;;;;;;10364908;28;20244;-79
2023/07/26 08:24:40;;;;;;;1.08;0.95;;;17.70;1.00;;;;;;10369453;28;20215;-87
2023/07/26 08:30:02;;;;;;;2.00;1.25;;;17.80;1.00;;;;;;10353797;28;20224;-79
2023/07/26 08:35:24;;;;;;;4.50;1.50;;;17.90;68.40;;;;;;10346501;28;20237;-80
2023/07/26 08:40:47;;;;;;;4.00;1.50;;;18.20;99.90;;;;;;10365389;28;20468;-79
2023/07/26 08:46:10;;;;;;;1.80;1.02;;;18.50;1.00;;;;;;10319723;28;20294;-80
2023/07/26 08:51:32;;;;;;;3.22;1.38;;;18.60;1.00;;;;;;10315826;28;20201;-80
2023/07/26 08:56:54;;;;;;;4.80;1.70;;;18.80;1.00;;;;;;10339638;28;20237;-84
2023/07/26 09:02:19;;;;;;;3.17;1.50;;;19.20;1.00;;;;;;10353425;28;20225;-89
2023/07/26 09:07:41;;;;;;;5.38;1.50;;;19.40;5.90;;;;;;10337024;28;20197;-79
2023/07/26 09:13:12;;;;;;;3.72;1.60;;;19.40;1.00;;;;;;10335410;28;20237;-80
2023/07/26 09:18:34;;;;;;;5.20;2.88;;;19.20;99.90;;;;;;10363135;28;20299;-80
2023/07/26 09:23:56;;;;;;;3.30;1.20;;;18.70;1.00;;;;;;10344130;28;20225;-80
2023/07/26 09:29:18;;;;;;;4.50;1.52;;;18.20;1.00;;;;;;10363063;28;20240;-81
2023/07/26 09:34:40;;;;;;;4.53;1.58;;;18.20;1.00;;;;;;10346190;28;20241;-80
2023/07/26 09:40:02;;;;;;;5.22;1.50;;;18.30;1.00;;;;;;10335049;28;20229;-79
2023/07/26 09:45:26;;;;;;;2.75;1.60;;;18.70;1.00;;;;;;10346168;28;20252;-79
2023/07/26 09:50:52;;;;;;;1.45;1.08;;;19.10;99.90;;;;;;10351119;28;20220;-81
2023/07/26 09:56:14;;;;;;;1.00;0.90;;;19.60;99.90;;;;;;10351105;28;20218;-77
2023/07/26 10:01:41;;;;;;;4.35;1.73;;;19.70;99.90;;;;;;10346468;28;20221;-77
2023/07/26 10:07:08;;;;;;;4.05;1.40;;;19.60;99.90;;;;;;10369770;28;20500;-81
2023/07/26 10:12:31;;;;;;;2.05;1.15;;;19.50;99.90;;;;;;10346488;28;20215;-79
2023/07/26 10:17:53;;;;;;;7.05;1.50;;;20.30;43.10;;;;;;10353224;28;20491;-80
2023/07/26 10:23:16;;;;;;;2.28;1.20;;;21.50;1.00;;;;;;10347699;28;20555;-79
2023/07/26 10:28:38;;;;;;;4.65;1.40;;;21.50;1.00;;;;;;10327425;28;20400;-78
2023/07/26 10:34:00;;;;;;;3.03;1.35;;;21.00;1.00;;;;;;10340854;28;20242;-78
2023/07/26 10:39:32;;;;;;;3.42;1.45;;;20.60;1.00;;;;;;10349086;28;20276;-82
2023/07/26 10:44:57;;;;;;;4.35;1.35;;;20.20;1.00;;;;;;10334083;28;20204;-78
2023/07/26 10:50:25;;;;;;;74.75;12.77;;;20.20;1.00;;;;;;10342247;28;20221;-76
2023/07/26 10:55:50;;;;;;;17.65;2.88;;;20.30;1.00;;;;;;10349559;28;20284;-77
2023/07/26 11:01:31;;;;;;;4.47;1.45;;;20.30;1.00;;;;;;10346945;28;20240;-76
2023/07/26 11:06:54;;;;;;;7.85;1.60;;;20.20;1.00;;;;;;10306002;28;20440;-76
2023/07/26 11:12:16;;;;;;;3.28;1.48;;;20.30;1.00;;;;;;10345799;28;20218;-76
2023/07/26 11:17:44;;;;;;;2.05;1.30;;;20.30;1.00;;;;;;10338646;28;20242;-77
2023/07/26 11:23:22;;;;;;;3.05;1.40;;;20.20;1.00;;;;;;10309114;28;20249;-80
2023/07/26 11:28:44;;;;;;;2.35;1.17;;;20.00;1.00;;;;;;10342002;28;20523;-78
2023/07/26 11:34:17;;;;;;;11.82;3.63;;;19.80;1.00;;;;;;10388053;28;20626;-80
2023/07/26 11:39:38;;;;;;;2.10;1.33;;;19.80;1.00;;;;;;10338093;28;20245;-79
2023/07/26 11:45:05;;;;;;;3.42;1.00;;;19.80;1.00;;;;;;10332789;28;20213;-78
2023/07/26 11:50:27;;;;;;;5.28;1.55;;;20.00;1.00;;;;;;10344989;28;20240;-78
2023/07/26 11:55:51;;;;;;;3.53;1.35;;;20.20;1.00;;;;;;10347996;28;20249;-77
2023/07/26 12:01:14;;;;;;;4.72;1.63;;;20.30;1.00;;;;;;10349882;28;20213;-79
2023/07/26 12:06:37;;;;;;;4.47;1.38;;;20.70;1.00;;;;;;10355402;28;20209;-78
2023/07/26 12:12:00;;;;;;;2.47;1.02;;;20.90;1.00;;;;;;10353703;28;20492;-75
2023/07/26 12:17:22;;;;;;;2.33;1.23;;;21.10;1.00;;;;;;10353263;28;20233;-77
2023/07/26 12:22:52;;;;;;;2.67;1.40;;;21.60;1.00;;;;;;10385738;28;20263;-79
2023/07/26 12:28:14;;;;;;;5.90;1.50;;;21.80;1.00;;;;;;10340291;28;20208;-78
2023/07/26 12:33:52;;;;;;;2.95;1.67;;;21.70;1.00;;;;;;10359583;28;20277;-81
2023/07/26 12:39:20;;;;;;;7.60;2.17;;;21.50;1.00;;;;;;10366008;28;20248;-81
2023/07/26 12:44:42;;;;;;;3.22;1.33;;;21.40;1.00;;;;;;10353567;28;20204;-78
2023/07/26 12:50:04;;;;;;;3.55;1.60;;;21.20;1.00;;;;;;10329031;28;20202;-76
2023/07/26 12:55:26;;;;;;;4.45;1.60;;;21.10;1.00;;;;;;10346201;28;20619;-78
2023/07/26 13:00:48;;;;;;;2.67;1.77;;;21.00;1.00;;;;;;10336901;28;20318;-78
2023/07/26 13:06:10;;;;;;;4.00;2.70;;;20.90;1.00;;;;;;10349205;28;20198;-77
2023/07/26 13:11:31;;;;;;;1.48;1.30;;;20.60;1.00;;;;;;10336284;28;20205;-79
2023/07/26 13:16:54;;;;;;;3.28;1.42;;;20.40;1.00;;;;;;10374751;28;20288;-77
2023/07/26 13:22:15;;;;;;;3.47;1.60;;;20.40;1.00;;;;;;10351249;28;20190;-76
2023/07/26 13:27:37;;;;;;;3.78;1.60;;;20.60;1.00;;;;;;10350842;28;20206;-77
2023/07/26 13:32:59;;;;;;;3.40;1.95;;;20.50;1.00;;;;;;10348004;28;20247;-73
2023/07/26 13:38:22;;;;;;;5.95;2.38;;;20.30;1.00;;;;;;10349411;28;20522;-81
2023/07/26 13:43:44;;;;;;;2.90;1.75;;;20.10;1.00;;;;;;10347981;28;20292;-75
2023/07/26 13:49:06;;;;;;;4.28;1.90;;;20.40;1.00;;;;;;10315431;28;20504;-76
2023/07/26 13:54:28;;;;;;;5.13;1.92;;;20.90;1.00;;;;;;10325618;28;20214;-77
2023/07/26 13:59:50;;;;;;;4.13;1.88;;;21.20;1.00;;;;;;10336812;28;20287;-78
2023/07/26 14:05:12;;;;;;;5.22;2.42;;;21.40;1.00;;;;;;10360768;28;20239;-79
2023/07/26 14:10:34;;;;;;;4.43;2.05;;;21.60;1.00;;;;;;10363180;28;20206;-80
2023/07/26 14:15:56;;;;;;;4.75;1.63;;;21.40;99.90;;;;;;10349530;28;20547;-83
2023/07/26 14:21:24;;;;;;;4.40;1.80;;;21.10;99.90;;;;;;10364672;28;20209;-77
2023/07/26 14:26:45;;;;;;;3.38;1.88;;;21.00;99.90;;;;;;10309376;28;20201;-77
2023/07/26 14:32:08;;;;;;;6.20;1.85;;;21.10;99.90;;;;;;10362804;28;20487;-78
2023/07/26 14:37:29;;;;;;;3.72;1.50;;;21.20;99.90;;;;;;10347358;28;20225;-77
2023/07/26 14:42:51;;;;;;;2.95;1.48;;;21.40;99.90;;;;;;10356456;28;20198;-78
2023/07/26 14:48:12;;;;;;;2.80;1.70;;;21.30;99.90;;;;;;10349041;28;20202;-77
2023/07/26 14:53:33;;;;;;;2.05;1.30;;;21.40;99.90;;;;;;10348431;28;20205;-76
2023/07/26 14:58:54;;;;;;;10.75;3.67;;;21.30;99.90;;;;;;10363170;28;20224;-78
2023/07/26 15:04:16;;;;;;;6.60;2.22;;;21.20;99.90;;;;;;10347216;28;20205;-77
2023/07/26 15:09:38;;;;;;;6.05;2.97;;;21.10;99.90;;;;;;10351994;28;20202;-79
2023/07/26 15:14:59;;;;;;;5.38;1.70;;;21.10;99.90;;;;;;10353746;28;20198;-76
2023/07/26 15:20:21;;;;;;;4.10;1.80;;;20.90;99.90;;;;;;10371530;28;20307;-79
2023/07/26 15:25:42;;;;;;;6.60;2.35;;;20.90;99.90;;;;;;10391958;28;20204;-76
2023/07/26 15:31:03;;;;;;;3.47;1.60;;;21.00;99.90;;;;;;10391450;28;20191;-76
2023/07/26 15:36:24;;;;;;;3.78;1.98;;;20.90;99.90;;;;;;10359913;28;20200;-77
2023/07/26 15:41:45;;;;;;;2.85;2.10;;;20.70;99.90;;;;;;10402069;28;20235;-78
2023/07/26 15:47:26;;;;;;;2.33;1.77;;;20.70;99.90;;;;;;10401892;28;20190;-78
2023/07/26 15:52:48;;;;;;;3.60;1.33;;;20.70;99.90;;;;;;10375849;28;20201;-76
2023/07/26 15:58:09;;;;;;;2.80;1.40;;;20.80;99.90;;;;;;10375893;28;20256;-77
2023/07/26 16:03:30;;;;;;;1.77;1.25;;;20.80;99.90;;;;;;10372947;28;20213;-76
2023/07/26 16:08:54;;;;;;;2.22;1.50;;;20.80;99.90;;;;;;10367363;28;20208;-78
2023/07/26 16:14:36;;;;;;;3.85;1.63;;;20.80;99.90;;;;;;10354977;28;20217;-76
2023/07/26 16:20:01;;;;;;;1.83;1.50;;;20.80;99.90;;;;;;10359338;28;20232;-78
2023/07/26 16:25:22;;;;;;;2.80;1.38;;;20.60;99.90;;;;;;10392466;28;20194;-77
2023/07/26 16:30:44;;;;;;;4.78;2.03;;;20.50;99.90;;;;;;10331253;28;20191;-76
2023/07/26 16:36:05;;;;;;;1.55;1.40;;;20.40;99.90;;;;;;10328683;28;20281;-77
2023/07/26 16:41:26;;;;;;;1.98;1.30;;;20.30;99.90;;;;;;10355003;28;20220;-76
2023/07/26 16:46:48;;;;;;;1.92;1.38;;;20.20;99.90;;;;;;10399134;28;20541;-76
2023/07/26 16:52:25;;;;;;;1.90;1.20;;;20.10;99.90;;;;;;10399436;28;20205;-76
2023/07/26 16:57:47;;;;;;;3.55;1.77;;;20.10;99.90;;;;;;10365388;28;20277;-77
2023/07/26 17:03:09;;;;;;;2.35;1.88;;;20.10;99.90;;;;;;10358548;28;20194;-76
2023/07/26 17:08:30;;;;;;;1.63;1.30;;;20.10;99.90;;;;;;10372748;28;20201;-76
2023/07/26 17:13:51;;;;;;;3.47;1.75;;;19.90;99.90;;;;;;10370169;28;20280;-76
2023/07/26 17:19:13;;;;;;;2.08;1.42;;;19.70;99.90;;;;;;10357507;28;20418;-78
2023/07/26 17:24:34;;;;;;;3.67;1.75;;;19.50;99.90;;;;;;10362554;28;20205;-76
2023/07/26 17:29:55;;;;;;;2.35;1.10;;;19.30;99.90;;;;;;10396691;28;20506;-77
2023/07/26 17:35:17;;;;;;;2.95;1.40;;;19.10;99.90;;;;;;10381842;28;20547;-76
2023/07/26 17:40:40;;;;;;;2.95;1.70;;;18.90;99.90;;;;;;10366873;28;20272;-76
2023/07/26 17:46:01;;;;;;;4.03;1.40;;;18.70;99.90;;;;;;10410176;28;20264;-76
2023/07/26 17:51:22;;;;;;;2.47;1.25;;;18.60;99.90;;;;;;10397298;28;20557;-76
2023/07/26 17:56:43;;;;;;;2.95;1.25;;;18.40;99.90;;;;;;10370267;28;20208;-77
2023/07/26 18:02:06;;;;;;;2.38;1.42;;;18.40;99.90;;;;;;10371043;28;20201;-77
2023/07/26 18:07:27;;;;;;;3.38;1.67;;;18.30;99.90;;;;;;10354239;28;20205;-76
2023/07/26 18:12:50;;;;;;;3.65;1.65;;;18.20;99.90;;;;;;10354398;28;20528;-78
2023/07/26 18:18:11;;;;;;;4.63;1.90;;;18.10;99.90;;;;;;10357070;28;20229;-79
2023/07/26 18:23:33;;;;;;;2.17;1.35;;;18.00;99.90;;;;;;10354369;28;20248;-76
2023/07/26 18:28:54;;;;;;;1.60;1.27;;;18.00;99.90;;;;;;10355187;28;20289;-78
2023/07/26 18:34:16;;;;;;;2.83;1.60;;;18.00;99.90;;;;;;10355478;28;20260;-78
2023/07/26 18:39:37;;;;;;;2.88;1.58;;;17.70;99.90;;;;;;10410649;28;20278;-77
2023/07/26 18:44:58;;;;;;;2.10;1.27;;;17.60;99.90;;;;;;10394475;28;20193;-78
2023/07/26 18:50:20;;;;;;;2.45;1.60;;;17.50;99.90;;;;;;10376672;28;20573;-77
2023/07/26 18:55:41;;;;;;;3.85;1.50;;;17.40;99.90;;;;;;10356115;28;20228;-78
2023/07/26 19:01:02;;;;;;;3.00;2.05;;;17.40;99.90;;;;;;10355000;28;20308;-76
2023/07/26 19:06:23;;;;;;;3.28;2.17;;;17.30;99.90;;;;;;10353599;28;20275;-78
2023/07/26 19:11:44;;;;;;;4.55;2.00;;;17.20;99.90;;;;;;10359210;28;20197;-76
2023/07/26 19:17:06;;;;;;;3.35;1.98;;;17.00;99.90;;;;;;10378696;28;20283;-77
2023/07/26 19:22:27;;;;;;;5.00;2.85;;;17.00;1.00;;;;;;10327378;28;20285;-76
2023/07/26 19:27:49;;;;;;;4.82;2.63;;;16.80;1.00;;;;;;10310567;28;20221;-76
2023/07/26 19:33:10;;;;;;;1.60;1.38;;;16.70;1.00;;;;;;10360734;28;20229;-76
2023/07/26 19:38:32;;;;;;;3.70;2.33;;;16.60;1.00;;;;;;10346472;28;20229;-76
2023/07/26 19:43:53;;;;;;;5.57;2.90;;;16.50;1.00;;;;;;10346067;28;20224;-76
2023/07/26 19:49:15;;;;;;;5.30;2.53;;;;;;;;;;10360469;28;20384;-76
2023/07/26 19:54:36;;;;;;;3.90;2.63;;;16.10;1.00;;;;;;10376246;28;20200;-76
2023/07/26 19:59:57;;;;;;;2.75;2.30;;;15.90;1.00;;;;;;10375052;28;20232;-76
2023/07/26 20:05:19;;;;;;;4.95;2.25;;;15.80;1.00;;;;;;10360655;28;20199;-76
2023/07/26 20:10:42;;;;;;;3.20;2.47;;;15.70;1.00;;;;;;10343839;28;20493;-76
2023/07/26 20:16:03;;;;;;;3.92;2.15;;;15.60;1.00;;;;;;10356452;28;20197;-76
2023/07/26 20:21:25;;;;;;;3.20;1.70;;;15.70;87.40;;;;;;10346622;28;20254;-77
2023/07/26 20:26:46;;;;;;;3.72;2.30;;;15.60;99.90;;;;;;10358032;28;20548;-76
2023/07/26 20:32:08;;;;;;;12.65;5.47;;;15.50;99.90;;;;;;10360605;28;20227;-76
2023/07/26 20:37:29;;;;;;;18.15;7.78;;;15.40;99.90;;;;;;10344077;28;20606;-76
2023/07/26 20:42:51;;;;;;;13.18;7.43;;;15.30;1.00;;;;;;10362386;28;20233;-77
2023/07/26 20:48:12;;;;;;;13.82;6.95;;;15.30;1.00;;;;;;10369060;28;20514;-76
2023/07/26 20:53:34;;;;;;;10.57;5.35;;;15.20;99.90;;;;;;10357561;28;20395;-76
2023/07/26 20:58:55;;;;;;;9.02;4.40;;;15.20;99.90;;;;;;10356859;28;20517;-77
2023/07/26 21:04:17;;;;;;;8.20;4.07;;;15.10;1.00;;;;;;10373744;28;20239;-76
2023/07/26 21:09:38;;;;;;;5.70;3.88;;;14.90;1.00;;;;;;10343004;28;20323;-76
2023/07/26 21:14:59;;;;;;;8.27;5.05;;;14.90;1.00;;;;;;10384482;28;20215;-76
2023/07/26 21:20:20;;;;;;;13.27;6.22;;;14.90;1.00;;;;;;10397468;28;20271;-76
2023/07/26 21:25:46;;;;;;;10.65;6.10;;;14.70;1.00;;;;;;10397095;28;20227;-77
2023/07/26 21:31:08;;;;;;;8.73;5.25;;;14.60;61.30;;;;;;10323167;28;20213;-76
2023/07/26 21:36:29;;;;;;;9.93;6.20;;;14.60;99.90;;;;;;10356820;28;20212;-77
2023/07/26 21:41:50;;;;;;;11.98;7.63;;;14.50;99.90;;;;;;10355072;28;20231;-75
2023/07/26 21:47:11;;;;;;;14.05;10.10;;;14.40;99.90;;;;;;10327881;28;20231;-76
2023/07/26 21:52:33;;;;;;;13.27;8.27;;;14.40;1.00;;;;;;10371608;28;20212;-76
2023/07/26 21:57:54;;;;;;;15.73;8.93;;;14.30;1.00;;;;;;10355573;28;20222;-75
2023/07/26 22:03:15;;;;;;;16.23;7.15;;;14.30;1.00;;;;;;10356063;28;20514;-76
2023/07/26 22:08:36;;;;;;;15.52;8.25;;;14.20;1.00;;;;;;10355802;28;20240;-76
2023/07/26 22:13:59;;;;;;;11.13;5.25;;;14.00;99.90;;;;;;10340848;28;20232;-76
2023/07/26 22:19:20;;;;;;;9.93;4.15;;;14.20;99.90;;;;;;10315162;28;20344;-75
2023/07/26 22:24:45;;;;;;;4.45;2.95;;;14.20;50.70;;;;;;10315408;28;20193;-76
2023/07/26 22:30:06;;;;;;;5.07;3.55;;;14.20;1.00;;;;;;10378121;28;20206;-78
2023/07/26 22:35:28;;;;;;;5.35;3.30;;;14.20;1.00;;;;;;10363012;28;20530;-78
2023/07/26 22:40:49;;;;;;;6.72;3.70;;;14.30;1.00;;;;;;10354324;28;20229;-75
2023/07/26 22:46:10;;;;;;;7.05;4.35;;;14.20;1.00;;;;;;10353238;28;20311;-75
2023/07/26 22:51:32;;;;;;;7.90;5.10;;;14.00;99.90;;;;;;10370039;28;20281;-75
2023/07/26 22:56:53;;;;;;;8.80;5.35;;;13.80;1.00;;;;;;10352362;28;20194;-75
2023/07/26 23:02:15;;;;;;;9.07;4.65;;;13.80;1.00;;;;;;10353506;28;20265;-75
2023/07/26 23:07:37;;;;;;;8.40;4.50;;;13.70;99.90;;;;;;10353236;28;20278;-76
2023/07/26 23:12:58;;;;;;;6.70;4.43;;;13.70;99.90;;;;;;10350318;28;20389;-76
2023/07/26 23:18:20;;;;;;;7.45;4.32;;;13.60;1.00;;;;;;10312768;28;20223;-77
2023/07/26 23:23:41;;;;;;;6.65;4.07;;;13.50;1.00;;;;;;10326591;28;20201;-77
2023/07/26 23:29:03;;;;;;;7.03;4.97;;;13.50;1.00;;;;;;10374078;28;20231;-77
2023/07/26 23:34:24;;;;;;;7.53;5.57;;;13.40;1.00;;;;;;10370614;28;20543;-76
2023/07/26 23:39:45;;;;;;;6.85;4.90;;;13.40;1.00;;;;;;10339115;28;20237;-77
2023/07/26 23:45:07;;;;;;;10.98;5.07;;;13.40;99.90;;;;;;10337474;28;20256;-78
2023/07/26 23:50:29;;;;;;;8.35;4.93;;;13.40;1.00;;;;;;10353661;28;20197;-76
2023/07/26 23:55:50;;;;;;;5.03;3.13;;;13.40;1.00;;;;;;10367881;28;20275;-76
